KLGB/LGB METAR and TAF weather

Enter ICAO airport designator
Station Type Date Time Source
KLGB METAR 2021/05/07 00:53 UTC NOAA

KLGB 070053Z 21009KT 10SM CLR 17/12 A3002 RMK AO2 SLP165 T01720117


Station Type Date Time Source
KLGB Decoded METAR 2021/05/07 00:53 UTC NOAA

LONG BEACH AIRPORT, CA, United States (KLGB) 33-49N 118-09W 10M
May 06, 2021 - 08:53 PM EDT / 2021.05.07 0053 UTC
Wind: from the SSW (210 degrees) at 10 MPH (9 KT):0
Visibility: 10 mile(s):0
Sky conditions: clear
Temperature: 63.0 F (17.2 C)
Dew Point: 53.1 F (11.7 C)
Relative Humidity: 70%
Pressure (altimeter): 30.02 in. Hg (1016 hPa)
ob: KLGB 070053Z 21009KT 10SM CLR 17/12 A3002 RMK AO2 SLP165 T01720117
cycle: 1

Station Type Date Time Source
KLGB TAF 2021/05/06 18:39 UTC NOAA

TAF KLGB 061737Z 0618/0718 VRB04KT P6SM SCT020
FM061900 20009KT P6SM SKC
FM070100 29010KT P6SM SKC
FM070300 29006KT P6SM BKN017
FM070500 VRB03KT P6SM OVC015

Example: see airport list